LiveATC.Net - Listen to live air traffic control over the Internet! Contact for advertising information

ICAO: ULLI  IATA: LED   Airport: Pulkovo Airport
City: Saint Petersburg
Country: Russia   Continent: Europe
ULLI METAR Weather: ULLI 271430Z 22008MPS 9999 BKN015 05/03 Q1004 R88/290050 NOSIG RMK 28L/23004G08MPS 28R/22008G12MPS
ULLI Flight Activity (FlightAware)
ULLI Gnd/Twr/App
Feed Status: UP   Listeners: 11
Listen right in your browser - requires Flash (in browser, requires Flash)
Click here to listen with your own player (launches your MP3 player)
ULLI Gnd/Twr/App Audio Archives
St. Petersburg Approach119.300
St. Petersburg Approach125.900
St. Petersburg Control135.600
St. Petersburg Tower118.100
St. Petersburg Tower118.700
St. Petersburg Transit131.800


Unauthorized use prohibited. See Terms of Service

Find LiveATC Audio Streams

Airport/ARTCC Code

(e.g., 124.400, 128.75)
Site-wide search

Browse LiveATC Feeds
LiveATC Coverage Map
Top 50 LiveATC Feeds
Bad Weather Areas

Offer a LiveATC Feed
Press Inquiries

LiveATC on iPhone
LiveATC on Android

Windows Phone
Windows 8/10

LiveATC Mobile
(Mobile browser)

ATC Audio Archives
Interesting Recordings

LiveATC Forums

Home Page
Make a Donation
LiveATC Bookstore

Terms of Use
Privacy Policy

ATC/Radar Sites
U.S. ARTCC Freqs
Canadian Air Freqs


FAA Airport Status
Nat'l Airspace Status
Arrival Demand Charts

Server Software By:

Please make a donation to help us keep growing!